Max Loyalty — 9HA4065 — position and weather

sailwx.info

Track history (hours):
 
Tides and Currents Weather Stations Pressure Air Temp Water Temp Dewpoint Dewpoint Depression Visibility Wind Speed Wind Dir Waves Ship Positions

Max Loyalty

Last reported at 2018-Feb-23 22:40 UTC. Time now 2018-Feb-25 12:10 UTC.
Position N 36°05' W 005°02'.

Length 134 m; draft 7 m.

Type: Ship. MMSI: 249037000.

Date/timePositionNaut miles runAvg speedWind from/ knotsBaromVisibWave heightAir tempDewpointWater temp
2018-Feb-23 22:40N 36°05' W 005°02'315.3
2018-Feb-23 22:27N 36°04' W 005°06'614.5
2018-Feb-23 22:00N 36°05' W 005°14'713.6
2018-Feb-23 21:30N 36°05' W 005°22'4 7.7
2018-Feb-23 21:00N 36°08' W 005°25'0 0.8
2018-Feb-23 20:29N 36°08' W 005°25'0 0.0
2018-Feb-23 19:59N 36°08' W 005°25'0 0.0
2018-Feb-23 19:25N 36°08' W 005°25'0 0.0
2018-Feb-23 18:52N 36°08' W 005°25'0 0.0
2018-Feb-23 18:01N 36°08' W 005°25'0 0.0
2018-Feb-23 17:55N 36°08' W 005°25'0 0.0
2018-Feb-23 17:28N 36°08' W 005°25'0 0.0
2018-Feb-23 16:57N 36°08' W 005°25'0 0.0
2018-Feb-23 16:30N 36°08' W 005°25'0 0.0
2018-Feb-23 16:00N 36°08' W 005°25'2 0.4
2018-Feb-23 12:18N 36°10' W 005°25'1 2.1
2018-Feb-23 11:59N 36°09' W 005°26'0 0.0
2018-Feb-23 01:45N 36°09' W 005°26'0 0.0
2018-Feb-22 20:58N 36°09' W 005°26'1 0.1
2018-Feb-22 13:20N 36°09' W 005°26'1 2.1
2018-Feb-22 12:59N 36°09' W 005°25'4 7.4
2018-Feb-22 12:30N 36°06' W 005°23'613.3
2018-Feb-22 12:00N 35°60' W 005°21'  
2018-Feb-18 19:56N 28°08' W 013°46'713.5
2018-Feb-18 19:26N 28°05' W 013°52'2313.4
2018-Feb-18 17:44N 27°59' W 014°17'613.6
2018-Feb-18 17:20N 27°58' W 014°23'413.7
2018-Feb-18 17:00N 27°58' W 014°28'713.5
2018-Feb-18 16:30N 27°58' W 014°36'714.0
2018-Feb-18 16:01N 27°60' W 014°44'713.8
2018-Feb-18 15:29N 28°01' W 014°52'713.5
2018-Feb-18 15:00N 28°02' W 014°59'713.6
2018-Feb-18 14:30N 28°04' W 015°06'713.9
2018-Feb-18 14:00N 28°05' W 015°14'713.8
2018-Feb-18 13:30N 28°07' W 015°22'3 6.4
2018-Feb-18 13:00N 28°09' W 015°25'0 0.0
2018-Feb-18 12:30N 28°09' W 015°25'0 0.0
2018-Feb-18 12:00N 28°09' W 015°25'0 0.0
2018-Feb-18 11:26N 28°09' W 015°25'0 0.0
2018-Feb-18 10:53N 28°09' W 015°25'0 0.0
2018-Feb-18 10:29N 28°09' W 015°25'0 0.0
2018-Feb-18 09:59N 28°09' W 015°25'0 0.0
2018-Feb-18 09:28N 28°09' W 015°25'0 0.0
2018-Feb-18 08:52N 28°09' W 015°25'0 0.0
2018-Feb-18 08:22N 28°09' W 015°25'0 0.0
2018-Feb-18 07:58N 28°09' W 015°25'0 0.0
2018-Feb-18 07:28N 28°09' W 015°25'0 0.0
2018-Feb-18 06:57N 28°09' W 015°25'0 0.0
2018-Feb-18 06:21N 28°09' W 015°25'0 0.0
2018-Feb-18 06:00N 28°09' W 015°25'0 0.0
2018-Feb-18 05:30N 28°09' W 015°25'0 0.0
2018-Feb-18 05:00N 28°09' W 015°25'0 0.0
2018-Feb-18 04:23N 28°09' W 015°25'0 0.0
2018-Feb-18 03:50N 28°09' W 015°25'0 0.0
2018-Feb-18 03:29N 28°09' W 015°25'0 0.0
2018-Feb-18 02:59N 28°09' W 015°25'0 0.0
2018-Feb-18 02:25N 28°09' W 015°25'0 0.0
2018-Feb-18 02:00N 28°09' W 015°25'1 2.8
2018-Feb-18 01:30N 28°07' W 015°24'3 5.6
2018-Feb-18 01:00N 28°09' W 015°22'612.9
2018-Feb-18 00:30N 28°15' W 015°26'714.0
2018-Feb-18 00:00N 28°15' W 015°34'713.8
2018-Feb-17 23:30N 28°16' W 015°42'713.5
2018-Feb-17 23:00N 28°16' W 015°49'713.5
2018-Feb-17 22:29N 28°16' W 015°57'713.2
2018-Feb-17 21:58N 28°19' W 016°04'614.0
2018-Feb-17 21:30N 28°24' W 016°09'713.1
2018-Feb-17 21:00N 28°29' W 016°14'1 1.3
2018-Feb-17 20:28N 28°29' W 016°13'0 0.0
2018-Feb-17 19:58N 28°29' W 016°13'0 0.0
2018-Feb-17 19:28N 28°29' W 016°13'0 0.0
2018-Feb-17 18:58N 28°29' W 016°13'0 0.0
2018-Feb-17 18:28N 28°29' W 016°13'0 0.0
2018-Feb-17 18:00N 28°29' W 016°13'0 0.0
2018-Feb-17 17:30N 28°29' W 016°13'0 0.0
2018-Feb-17 17:00N 28°29' W 016°13'0 0.0
2018-Feb-17 16:30N 28°29' W 016°13'0 0.0
2018-Feb-17 16:00N 28°29' W 016°13'0 0.0
2018-Feb-17 15:29N 28°29' W 016°13'0 0.0
2018-Feb-17 14:59N 28°29' W 016°13'0 0.0
2018-Feb-17 14:26N 28°29' W 016°13'0 0.0
2018-Feb-17 14:01N 28°29' W 016°13'1 2.6
2018-Feb-17 13:30N 28°28' W 016°13'611.1
2018-Feb-17 13:01N 28°30' W 016°07'611.7
2018-Feb-17 12:29N 28°34' W 016°01'1512.1
2018-Feb-17 11:16N 28°43' W 015°48'411.9
2018-Feb-17 10:54N 28°46' W 015°44'511.9
2018-Feb-17 10:30N 28°49' W 015°40'611.7
2018-Feb-17 10:00N 28°53' W 015°35'711.9
2018-Feb-17 09:27N 28°57' W 015°30'512.0
2018-Feb-17 09:00N 29°01' W 015°25'5813.9
2018-Feb-17 04:52N 29°38' W 014°35'59214.7
2018-Feb-15 12:43N 35°57' W 005°34'314.9
2018-Feb-15 12:30N 35°58' W 005°30'612.4
2018-Feb-15 12:00N 36°03' W 005°25'510.0
2018-Feb-15 11:30N 36°08' W 005°25'0 0.2
2018-Feb-15 10:40N 36°08' W 005°25'0 0.0
2018-Feb-15 10:22N 36°08' W 005°25'0 0.0
2018-Feb-15 08:27N 36°08' W 005°25'0 0.0
2018-Feb-15 07:42N 36°08' W 005°25'0 0.0
2018-Feb-15 07:29N 36°08' W 005°25'0 0.0
2018-Feb-15 06:59N 36°08' W 005°25'0 0.0
2018-Feb-15 06:08N 36°08' W 005°25'0 0.0
2018-Feb-15 05:59N 36°08' W 005°25'0 0.0
2018-Feb-15 05:29N 36°08' W 005°25'0 0.0
2018-Feb-15 04:58N 36°08' W 005°25'0 0.0
2018-Feb-15 04:28N 36°08' W 005°25'0 0.0
2018-Feb-15 04:00N 36°08' W 005°25'0 0.0
2018-Feb-15 03:31N 36°08' W 005°25'0 0.0
2018-Feb-15 03:01N 36°08' W 005°25'0 0.1
2018-Feb-15 02:27N 36°08' W 005°25'2 2.8
2018-Feb-15 01:49N 36°09' W 005°25'0 0.0
2018-Feb-15 01:22N 36°09' W 005°25'0 0.0
2018-Feb-15 01:00N 36°09' W 005°25'0 0.0
2018-Feb-15 00:30N 36°09' W 005°25'0 0.0
2018-Feb-14 23:57N 36°09' W 005°25'0 0.0
2018-Feb-14 23:27N 36°09' W 005°25'0 0.0
2018-Feb-14 23:00N 36°09' W 005°25'0 0.0
2018-Feb-14 22:29N 36°09' W 005°25'0 0.0
2018-Feb-14 21:59N 36°09' W 005°25'0 0.0
2018-Feb-14 21:23N 36°09' W 005°25'0 0.0
2018-Feb-14 20:56N 36°09' W 005°25'0 0.0
2018-Feb-14 20:16N 36°09' W 005°25'0 0.0
2018-Feb-14 19:52N 36°09' W 005°25'0 0.0
2018-Feb-14 19:22N 36°09' W 005°25'0 0.0
2018-Feb-14 18:58N 36°09' W 005°25'0 0.0
2018-Feb-14 18:28N 36°09' W 005°25'0 0.0
2018-Feb-14 18:00N 36°09' W 005°25'0 0.0
2018-Feb-14 17:27N 36°09' W 005°25'0 0.0
2018-Feb-14 17:00N 36°09' W 005°25'0 0.0
2018-Feb-14 16:30N 36°09' W 005°25'0 0.0
2018-Feb-14 15:53N 36°09' W 005°25'0 0.0
2018-Feb-14 15:17N 36°09' W 005°25'0 0.0
2018-Feb-14 14:59N 36°09' W 005°25'0 0.0
2018-Feb-14 14:02N 36°09' W 005°25'0 0.1
2018-Feb-14 13:50N 36°09' W 005°25'0 0.0
2018-Feb-14 13:28N 36°09' W 005°25'0 0.0
2018-Feb-14 12:58N 36°09' W 005°25'0 0.1
2018-Feb-14 12:28N 36°09' W 005°25'0 0.0
2018-Feb-14 11:55N 36°09' W 005°25'0 0.0
2018-Feb-14 11:28N 36°09' W 005°25'0 0.0
2018-Feb-14 11:00N 36°09' W 005°25'0 0.0
2018-Feb-14 08:26N 36°10' W 005°25'0 0.0
2018-Feb-14 07:11N 36°10' W 005°25'0 0.0
2018-Feb-14 06:59N 36°09' W 005°25'0 0.0
2018-Feb-14 06:28N 36°09' W 005°25'0 0.0
2018-Feb-14 05:58N 36°09' W 005°25'0 0.0
2018-Feb-14 05:25N 36°10' W 005°25'0 0.0
2018-Feb-14 04:58N 36°10' W 005°25'0 0.0
2018-Feb-14 04:31N 36°09' W 005°25'0 0.0
2018-Feb-14 04:00N 36°09' W 005°25'0 0.0
2018-Feb-14 01:05N 36°10' W 005°25'0 0.0
2018-Feb-14 00:41N 36°10' W 005°25'0 0.2
2018-Feb-14 00:29N 36°10' W 005°25'0 0.1
2018-Feb-13 23:50N 36°10' W 005°25'1 2.7
2018-Feb-13 23:29N 36°09' W 005°26'1 2.1
2018-Feb-13 22:59N 36°08' W 005°26'  
Track history (hours):
 
Tides and Currents Weather Stations Pressure Air Temp Water Temp Dewpoint Dewpoint Depression Visibility Wind Speed Wind Dir Waves Ship Positions

Max Loyalty

Last reported at 2018-Feb-23 22:40 UTC. Time now 2018-Feb-25 12:10 UTC.
Position N 36°05' W 005°02'.

Length 134 m; draft 7 m.

Type: Ship. MMSI: 249037000.

Date/timePositionNaut miles runAvg speedWind from/ knotsBaromVisibWave heightAir tempDewpointWater temp
2018-Feb-23 22:40N 36°05' W 005°02'315.3
2018-Feb-23 22:27N 36°04' W 005°06'614.5
2018-Feb-23 22:00N 36°05' W 005°14'713.6
2018-Feb-23 21:30N 36°05' W 005°22'4 7.7
2018-Feb-23 21:00N 36°08' W 005°25'0 0.8
2018-Feb-23 20:29N 36°08' W 005°25'0 0.0
2018-Feb-23 19:59N 36°08' W 005°25'0 0.0
2018-Feb-23 19:25N 36°08' W 005°25'0 0.0
2018-Feb-23 18:52N 36°08' W 005°25'0 0.0
2018-Feb-23 18:01N 36°08' W 005°25'0 0.0
2018-Feb-23 17:55N 36°08' W 005°25'0 0.0
2018-Feb-23 17:28N 36°08' W 005°25'0 0.0
2018-Feb-23 16:57N 36°08' W 005°25'0 0.0
2018-Feb-23 16:30N 36°08' W 005°25'0 0.0
2018-Feb-23 16:00N 36°08' W 005°25'2 0.4
2018-Feb-23 12:18N 36°10' W 005°25'1 2.1
2018-Feb-23 11:59N 36°09' W 005°26'0 0.0
2018-Feb-23 01:45N 36°09' W 005°26'0 0.0
2018-Feb-22 20:58N 36°09' W 005°26'1 0.1
2018-Feb-22 13:20N 36°09' W 005°26'1 2.1
2018-Feb-22 12:59N 36°09' W 005°25'4 7.4
2018-Feb-22 12:30N 36°06' W 005°23'613.3
2018-Feb-22 12:00N 35°60' W 005°21'  
2018-Feb-18 19:56N 28°08' W 013°46'713.5
2018-Feb-18 19:26N 28°05' W 013°52'2313.4
2018-Feb-18 17:44N 27°59' W 014°17'613.6
2018-Feb-18 17:20N 27°58' W 014°23'413.7
2018-Feb-18 17:00N 27°58' W 014°28'713.5
2018-Feb-18 16:30N 27°58' W 014°36'714.0
2018-Feb-18 16:01N 27°60' W 014°44'713.8
2018-Feb-18 15:29N 28°01' W 014°52'713.5
2018-Feb-18 15:00N 28°02' W 014°59'713.6
2018-Feb-18 14:30N 28°04' W 015°06'713.9
2018-Feb-18 14:00N 28°05' W 015°14'713.8
2018-Feb-18 13:30N 28°07' W 015°22'3 6.4
2018-Feb-18 13:00N 28°09' W 015°25'0 0.0
2018-Feb-18 12:30N 28°09' W 015°25'0 0.0
2018-Feb-18 12:00N 28°09' W 015°25'0 0.0
2018-Feb-18 11:26N 28°09' W 015°25'0 0.0
2018-Feb-18 10:53N 28°09' W 015°25'0 0.0
2018-Feb-18 10:29N 28°09' W 015°25'0 0.0
2018-Feb-18 09:59N 28°09' W 015°25'0 0.0
2018-Feb-18 09:28N 28°09' W 015°25'0 0.0
2018-Feb-18 08:52N 28°09' W 015°25'0 0.0
2018-Feb-18 08:22N 28°09' W 015°25'0 0.0
2018-Feb-18 07:58N 28°09' W 015°25'0 0.0
2018-Feb-18 07:28N 28°09' W 015°25'0 0.0
2018-Feb-18 06:57N 28°09' W 015°25'0 0.0
2018-Feb-18 06:21N 28°09' W 015°25'0 0.0
2018-Feb-18 06:00N 28°09' W 015°25'0 0.0
2018-Feb-18 05:30N 28°09' W 015°25'0 0.0
2018-Feb-18 05:00N 28°09' W 015°25'0 0.0
2018-Feb-18 04:23N 28°09' W 015°25'0 0.0
2018-Feb-18 03:50N 28°09' W 015°25'0 0.0
2018-Feb-18 03:29N 28°09' W 015°25'0 0.0
2018-Feb-18 02:59N 28°09' W 015°25'0 0.0
2018-Feb-18 02:25N 28°09' W 015°25'0 0.0
2018-Feb-18 02:00N 28°09' W 015°25'1 2.8
2018-Feb-18 01:30N 28°07' W 015°24'3 5.6
2018-Feb-18 01:00N 28°09' W 015°22'612.9
2018-Feb-18 00:30N 28°15' W 015°26'714.0
2018-Feb-18 00:00N 28°15' W 015°34'713.8
2018-Feb-17 23:30N 28°16' W 015°42'713.5
2018-Feb-17 23:00N 28°16' W 015°49'713.5
2018-Feb-17 22:29N 28°16' W 015°57'713.2
2018-Feb-17 21:58N 28°19' W 016°04'614.0
2018-Feb-17 21:30N 28°24' W 016°09'713.1
2018-Feb-17 21:00N 28°29' W 016°14'1 1.3
2018-Feb-17 20:28N 28°29' W 016°13'0 0.0
2018-Feb-17 19:58N 28°29' W 016°13'0 0.0
2018-Feb-17 19:28N 28°29' W 016°13'0 0.0
2018-Feb-17 18:58N 28°29' W 016°13'0 0.0
2018-Feb-17 18:28N 28°29' W 016°13'0 0.0
2018-Feb-17 18:00N 28°29' W 016°13'0 0.0
2018-Feb-17 17:30N 28°29' W 016°13'0 0.0
2018-Feb-17 17:00N 28°29' W 016°13'0 0.0
2018-Feb-17 16:30N 28°29' W 016°13'0 0.0
2018-Feb-17 16:00N 28°29' W 016°13'0 0.0
2018-Feb-17 15:29N 28°29' W 016°13'0 0.0
2018-Feb-17 14:59N 28°29' W 016°13'0 0.0
2018-Feb-17 14:26N 28°29' W 016°13'0 0.0
2018-Feb-17 14:01N 28°29' W 016°13'1 2.6
2018-Feb-17 13:30N 28°28' W 016°13'611.1
2018-Feb-17 13:01N 28°30' W 016°07'611.7
2018-Feb-17 12:29N 28°34' W 016°01'1512.1
2018-Feb-17 11:16N 28°43' W 015°48'411.9
2018-Feb-17 10:54N 28°46' W 015°44'511.9
2018-Feb-17 10:30N 28°49' W 015°40'611.7
2018-Feb-17 10:00N 28°53' W 015°35'711.9
2018-Feb-17 09:27N 28°57' W 015°30'512.0
2018-Feb-17 09:00N 29°01' W 015°25'5813.9
2018-Feb-17 04:52N 29°38' W 014°35'59214.7
2018-Feb-15 12:43N 35°57' W 005°34'314.9
2018-Feb-15 12:30N 35°58' W 005°30'612.4
2018-Feb-15 12:00N 36°03' W 005°25'510.0
2018-Feb-15 11:30N 36°08' W 005°25'0 0.2
2018-Feb-15 10:40N 36°08' W 005°25'0 0.0
2018-Feb-15 10:22N 36°08' W 005°25'0 0.0
2018-Feb-15 08:27N 36°08' W 005°25'0 0.0
2018-Feb-15 07:42N 36°08' W 005°25'0 0.0
2018-Feb-15 07:29N 36°08' W 005°25'0 0.0
2018-Feb-15 06:59N 36°08' W 005°25'0 0.0
2018-Feb-15 06:08N 36°08' W 005°25'0 0.0
2018-Feb-15 05:59N 36°08' W 005°25'0 0.0
2018-Feb-15 05:29N 36°08' W 005°25'0 0.0
2018-Feb-15 04:58N 36°08' W 005°25'0 0.0
2018-Feb-15 04:28N 36°08' W 005°25'0 0.0
2018-Feb-15 04:00N 36°08' W 005°25'0 0.0
2018-Feb-15 03:31N 36°08' W 005°25'0 0.0
2018-Feb-15 03:01N 36°08' W 005°25'0 0.1
2018-Feb-15 02:27N 36°08' W 005°25'2 2.8
2018-Feb-15 01:49N 36°09' W 005°25'0 0.0
2018-Feb-15 01:22N 36°09' W 005°25'0 0.0
2018-Feb-15 01:00N 36°09' W 005°25'0 0.0
2018-Feb-15 00:30N 36°09' W 005°25'0 0.0
2018-Feb-14 23:57N 36°09' W 005°25'0 0.0
2018-Feb-14 23:27N 36°09' W 005°25'0 0.0
2018-Feb-14 23:00N 36°09' W 005°25'0 0.0
2018-Feb-14 22:29N 36°09' W 005°25'0 0.0
2018-Feb-14 21:59N 36°09' W 005°25'0 0.0
2018-Feb-14 21:23N 36°09' W 005°25'0 0.0
2018-Feb-14 20:56N 36°09' W 005°25'0 0.0
2018-Feb-14 20:16N 36°09' W 005°25'0 0.0
2018-Feb-14 19:52N 36°09' W 005°25'0 0.0
2018-Feb-14 19:22N 36°09' W 005°25'0 0.0
2018-Feb-14 18:58N 36°09' W 005°25'0 0.0
2018-Feb-14 18:28N 36°09' W 005°25'0 0.0
2018-Feb-14 18:00N 36°09' W 005°25'0 0.0
2018-Feb-14 17:27N 36°09' W 005°25'0 0.0
2018-Feb-14 17:00N 36°09' W 005°25'0 0.0
2018-Feb-14 16:30N 36°09' W 005°25'0 0.0
2018-Feb-14 15:53N 36°09' W 005°25'0 0.0
2018-Feb-14 15:17N 36°09' W 005°25'0 0.0
2018-Feb-14 14:59N 36°09' W 005°25'0 0.0
2018-Feb-14 14:02N 36°09' W 005°25'0 0.1
2018-Feb-14 13:50N 36°09' W 005°25'0 0.0
2018-Feb-14 13:28N 36°09' W 005°25'0 0.0
2018-Feb-14 12:58N 36°09' W 005°25'0 0.1
2018-Feb-14 12:28N 36°09' W 005°25'0 0.0
2018-Feb-14 11:55N 36°09' W 005°25'0 0.0
2018-Feb-14 11:28N 36°09' W 005°25'0 0.0
2018-Feb-14 11:00N 36°09' W 005°25'0 0.0
2018-Feb-14 08:26N 36°10' W 005°25'0 0.0
2018-Feb-14 07:11N 36°10' W 005°25'0 0.0
2018-Feb-14 06:59N 36°09' W 005°25'0 0.0
2018-Feb-14 06:28N 36°09' W 005°25'0 0.0
2018-Feb-14 05:58N 36°09' W 005°25'0 0.0
2018-Feb-14 05:25N 36°10' W 005°25'0 0.0
2018-Feb-14 04:58N 36°10' W 005°25'0 0.0
2018-Feb-14 04:31N 36°09' W 005°25'0 0.0
2018-Feb-14 04:00N 36°09' W 005°25'0 0.0
2018-Feb-14 01:05N 36°10' W 005°25'0 0.0
2018-Feb-14 00:41N 36°10' W 005°25'0 0.2
2018-Feb-14 00:29N 36°10' W 005°25'0 0.1
2018-Feb-13 23:50N 36°10' W 005°25'1 2.7
2018-Feb-13 23:29N 36°09' W 005°26'1 2.1
2018-Feb-13 22:59N 36°08' W 005°26'  

Dump ship's entire track history